• Join FlightAware (Why Join?)
  • Login
  • US Flag 
11:18PM EDT


 

Airport Tracker/Info


-or-


 

Live Flight TrackerFlight Track Log ✈ UAL395 ✈ 06-May-2013 ✈ KLAS - KSFO

Flight Track Log - Related Links

Times and Time Zones

All times are in EDT time to prevent confusion due to time zone crossing. See the UAL395 flight status page for this flight to view local times or setup timezone preferences in your user account.

Time Position Orientation Groundspeed Altitude Reporting Facility
EDT Latitude Longitude Course Direction KTS MPH feet Rate Location/Type
12:25PM 36.0767 -115.1706 270° West 154 177 3,400  Level Los Angeles Center
12:25PM 36.0756 -115.1950 267° West 167 192 3,900 1,560 Climbing Los Angeles Center
12:27PM 35.9113 -115.3826 207° Southwest  Level FlightAware Approximate
12:27PM 36.0361 -115.2706 237° Southwest 243 280 6,300  Level Los Angeles Center
12:27PM 35.9872 -115.2958 203° Southwest 268 308 8,900 3,360 Climbing Los Angeles Center
12:28PM 35.8834 -115.4930 270° West  Level FlightAware Approximate
12:28PM 35.9664 -115.3044 198° South 261 300 9,800  Level Los Angeles Center
12:29PM 35.8833 -115.6245 270° West  Level FlightAware Approximate
12:29PM 35.9108 -115.3728 225° Southwest 275 316 12,400  Level Los Angeles Center
12:30PM 35.8834 -115.7561 270° West  Level FlightAware Approximate
12:31PM 35.8897 -115.6236 264° West 362 417 16,300  Level Los Angeles Center
12:32PM 35.8922 -115.7631 271° West 377 434 19,000 2,220 Climbing Los Angeles Center
12:33PM 35.8939 -115.8928 271° West 379 436 20,900 1,680 Climbing Los Angeles Center
12:34PM 35.9356 -116.0164 293° West 405 466 22,500 1,500 Climbing Los Angeles Center
12:35PM 36.0169 -116.1089 317° Northwest 423 487 24,000 1,500 Climbing Los Angeles Center
12:37PM 36.1391 -116.2446 315° West  Level FlightAware Approximate
12:38PM 36.3039 -116.4394 327° Northwest 440 506 28,700  Level Los Angeles Center
12:39PM 36.3928 -116.5439 317° Northwest 443 510 30,000 480 Climbing Los Angeles Center
12:41PM 36.5322 -116.7111 316° Northwest 441 507 30,000  Level Oakland Center
12:42PM 36.6275 -116.8036 322° Northwest 438 504 30,000  Level Oakland Center
12:43PM 36.7339 -116.8775 331° Northwest 439 505 30,000  Level Oakland Center
12:44PM 36.7160 -116.8528 327° Northwest  Level FlightAware Approximate
12:44PM 36.9036 -117.0031 329° Northwest 442 509 30,000  Level Los Angeles Center
12:45PM 37.0092 -117.0847 328° Northwest 443 510 30,000  Level Los Angeles Center
12:46PM 37.0503 -117.1183 327° Northwest 442 509 30,000  Level Oakland Center
12:47PM 37.1539 -117.2056 326° Northwest 447 514 30,000  Level Oakland Center
12:48PM 37.2000 -117.3492 292° West 449 517 30,000  Level Oakland Center
12:49PM 37.2214 -117.5022 280° West 447 514 30,000  Level Oakland Center
12:50PM 37.2431 -117.6567 280° West 447 514 30,000  Level Oakland Center
12:52PM 37.2775 -117.9283 279° West 443 510 30,000  Level Los Angeles Center
12:52PM 37.2869 -117.9931 280° West 442 509 30,000  Level Oakland Center
12:53PM 37.3300 -118.1358 291° West 449 517 30,000  Level Oakland Center
12:55PM 37.4492 -118.3539 305° West 447 514 30,000  Level Los Angeles Center
12:55PM 37.4714 -118.3983 302° West 449 517 30,000  Level Oakland Center
12:57PM 37.5922 -118.6300 303° West 446 513 30,000  Level Los Angeles Center
12:58PM 37.6594 -118.7631 303° West 448 516 30,000  Level Los Angeles Center
12:58PM 37.6672 -118.8097 282° West 453 521 30,000  Level Oakland Center
12:59PM 37.6697 -118.9667 271° West 451 519 30,000  Level Oakland Center
01:00PM 37.6686 -119.1256 270° West 452 520 30,000  Level Oakland Center
01:01PM 37.6656 -119.2833 269° West 451 519 30,000  Level Oakland Center
01:02PM 37.6628 -119.4422 269° West 453 521 30,000 -60 Level Oakland Center
01:03PM 37.6633 -119.5981 270° West 447 514 29,900 -660 Descending Oakland Center
01:05PM 37.6538 -119.7785 266° West  Level FlightAware Approximate
01:05PM 37.6558 -119.9100 266° West 444 511 28,000  Level Oakland Center
01:06PM 37.6522 -120.0647 268° West 440 506 28,000  Level Oakland Center
01:07PM 37.6483 -120.2194 268° West 439 505 28,000 -120 Level Oakland Center
01:08PM 37.6436 -120.3742 268° West 439 505 27,800 -1,020 Descending Oakland Center
01:09PM 37.6383 -120.5553 268° West 434 499 26,000 -1,380 Descending Oakland Center
01:10PM 37.6333 -120.6333 265° West 427 491 25,700 -2,100 Descending Northern Cal TRACON
01:12PM 37.6333 -120.9167 270° West 399 459 20,700 -2,580 Descending Northern Cal TRACON
01:14PM 37.6000 -121.1833 261° West 362 417 15,500 -2,400 Descending Northern Cal TRACON
01:15PM 37.5847 -121.3367 263° West 337 388 12,200 -1,560 Descending Oakland Center
01:17PM 37.5605 -121.4890 262° West  Level FlightAware Approximate
01:17PM 37.5667 -121.5000 262° West 298 343 11,000  Level Northern Cal TRACON
01:18PM 37.5500 -121.6000 258° West 292 336 11,000 -600 Level Northern Cal TRACON
01:19PM 37.5133 -121.7653 254° West 292 336 9,500 -1,080 Descending Oakland Center
01:20PM 37.5000 -121.8000 244° Southwest 289 333 8,800 -1,320 Descending Northern Cal TRACON
01:21PM 37.4833 -121.8833 256° West 288 331 7,900 -1,380 Descending Northern Cal TRACON
01:22PM 37.5000 -121.9833 282° West 253 291 6,100 -1,500 Descending Northern Cal TRACON
01:23PM 37.5167 -122.0500 288° West 249 287 4,900 -1,140 Descending Northern Cal TRACON
01:24PM 37.5500 -122.1500 293° West 232 267 3,900 -1,020 Descending Northern Cal TRACON
01:25PM 37.5625 -122.1867 293° West 228 262 3,000 -1,140 Descending Oakland Center
01:27PM 37.6000 -122.3167 290° West 156 180 700 -1,080 Descending Northern Cal TRACON